Time;durP1;ratioP1;P1;durP2;ratioP2;P2;SDS_P1;SDS_P2;PMS_P1;PMS_P2;Temp;Humidity;BMP_temperature;BMP_pressure;BME280_temperature;BME280_humidity;BME280_pressure;Samples;Min_cycle;Max_cycle;Signal;HPM_P1;HPM_P2
2022/02/09 00:00:20;;;;;;;;;;;2.40;99.90;;;1.06;70.65;96960.63;10496842;28;1918;-67
2022/02/09 00:05:40;;;;;;;;;;;2.20;99.90;;;0.97;70.70;96961.75;10509767;28;1917;-69
2022/02/09 00:10:48;;;;;;;;;;;2.20;99.90;;;0.92;71.38;96960.66;10491930;28;1848;-69
2022/02/09 00:15:59;;;;;;;;;;;2.00;99.90;;;0.92;72.04;96972.06;10521865;28;1906;-69
2022/02/09 00:21:26;;;;;;;;;;;2.00;99.90;;;0.93;72.33;96967.59;10505392;28;1965;-67
2022/02/09 00:43:10;;;;;;;;;;;2.10;99.90;;;0.86;73.17;96988.66;10427274;28;1827;-67
2022/02/09 00:59:20;;;;;;;;;;;1.90;99.90;;;0.82;75.08;96980.25;10482648;28;1910;-69
2022/02/09 01:57:52;;;;;;;;;;;2.30;99.90;;;1.52;77.63;96973.59;10512615;28;2003;-68
2022/02/09 02:02:55;;;;;;;;;;;2.40;99.90;;;1.76;77.46;96967.13;10489118;28;1951;-68
2022/02/09 02:08:00;;;;;;;;;;;2.50;99.90;;;2.01;76.33;96966.75;10488697;28;1990;-68
2022/02/09 02:13:15;;;;;;;;;;;2.80;99.90;;;2.16;76.12;96960.38;10507892;28;2030;-68
2022/02/09 02:18:22;;;;;;;;;;;2.90;99.90;;;2.33;75.55;96960.06;10489532;28;2004;-68
2022/02/09 02:23:40;;;;;;;;;;;3.00;99.90;;;2.44;74.59;96959.53;10488381;28;1927;-69
2022/02/09 02:28:53;;;;;;;;;;;3.20;99.90;;;2.70;73.48;96954.41;10489077;28;1930;-68
2022/02/09 03:11:59;;;;;;;;;;;4.00;99.90;;;3.17;70.74;96904.16;10487513;28;2020;-68
2022/02/09 03:17:06;;;;;;;;;;;4.00;99.90;;;3.14;70.90;96908.03;10498062;28;1963;-67
2022/02/09 03:22:24;;;;;;;;;;;4.00;99.90;;;3.24;70.90;96910.31;10485675;28;1955;-68
2022/02/09 03:27:44;;;;;;;;;;;4.10;99.90;;;3.31;71.04;96905.00;10500723;28;1912;-69
2022/02/09 03:43:57;;;;;;;;;;;4.40;99.90;;;3.48;69.51;96896.47;10494401;28;2015;-69
2022/02/09 03:49:10;;;;;;;;;;;4.30;99.90;;;3.46;70.12;96893.22;10514059;28;1934;-69
2022/02/09 03:54:25;;;;;;;;;;;4.30;99.90;;;3.54;69.75;96889.53;10508876;28;1884;-69
2022/02/09 03:59:30;;;;;;;;;;;4.30;99.90;;;3.58;70.33;96874.03;10492329;28;1975;-69
2022/02/09 04:04:33;;;;;;;;;;;4.30;99.90;;;3.48;71.09;96872.56;10509370;28;1888;-69
2022/02/09 04:09:39;;;;;;;;;;;4.30;99.90;;;3.42;70.75;96859.25;10497775;28;1970;-69
2022/02/09 04:14:50;;;;;;;;;;;4.40;99.90;;;3.26;71.88;96860.47;10515315;28;1963;-68
2022/02/09 04:20:14;;;;;;;;;;;4.30;99.90;;;3.20;73.50;96855.94;10510073;28;1910;-68
2022/02/09 04:36:11;;;;;;;;;;;4.00;99.90;;;2.69;76.83;96846.56;10559765;28;1968;-70
2022/02/09 04:41:35;;;;;;;;;;;3.80;99.90;;;2.44;78.26;96845.44;10559971;28;1983;-69
2022/02/09 04:52:16;;;;;;;;;;;3.50;99.90;;;2.01;81.34;96845.56;10561469;28;1988;-69
2022/02/09 04:57:31;;;;;;;;;;;3.30;99.90;;;1.83;81.91;96843.38;10539345;28;1978;-69
2022/02/09 05:02:56;;;;;;;;;;;3.10;99.90;;;1.77;82.63;96840.69;10562407;28;2068;-69
2022/02/09 05:24:18;;;;;;;;;;;2.70;99.90;;;1.38;86.39;96828.75;10487981;28;1922;-68
2022/02/09 05:29:21;;;;;;;;;;;2.50;99.90;;;1.30;87.28;96826.22;10562145;28;1976;-68
2022/02/09 05:34:24;;;;;;;;;;;2.50;99.90;;;1.18;87.52;96830.38;10559159;28;2357;-69
2022/02/09 05:39:27;;;;;;;;;;;2.40;99.90;;;1.15;88.20;96836.06;10556853;28;2008;-71
2022/02/09 05:44:30;;;;;;;;;;;2.30;99.90;;;1.10;88.84;96830.50;10559285;28;1820;-69
2022/02/09 05:49:44;;;;;;;;;;;2.20;99.90;;;1.16;88.95;96829.75;10574186;28;1779;-70
2022/02/09 06:00:17;;;;;;;;;;;2.20;99.90;;;1.14;88.68;96831.75;10551719;28;2063;-69
2022/02/09 06:05:21;;;;;;;;;;;2.20;99.90;;;1.19;88.93;96834.66;10565687;28;1879;-70
2022/02/09 06:10:31;;;;;;;;;;;2.20;99.90;;;1.20;88.69;96831.00;10548217;28;2141;-71
2022/02/09 06:16:01;;;;;;;;;;;2.20;99.90;;;1.18;88.50;96839.16;10551722;28;1812;-69
2022/02/09 06:21:04;;;;;;;;;;;2.20;99.90;;;1.07;90.11;96837.81;10542768;28;1906;-70
2022/02/09 06:26:07;;;;;;;;;;;2.10;99.90;;;0.94;91.63;96835.00;10567152;28;1949;-70
2022/02/09 06:31:10;;;;;;;;;;;2.10;99.90;;;0.87;92.28;96842.06;10565471;28;1976;-70
2022/02/09 06:36:15;;;;;;;;;;;2.00;99.90;;;0.82;92.02;96837.31;10557510;28;1821;-70
2022/02/09 06:41:18;;;;;;;;;;;2.00;99.90;;;0.80;92.90;96851.75;10543384;28;2018;-69
2022/02/09 06:46:22;;;;;;;;;;;2.00;99.90;;;0.80;93.26;96835.88;10567636;28;1881;-69
2022/02/09 06:51:31;;;;;;;;;;;1.90;99.90;;;0.80;93.82;96838.53;10545644;28;1788;-69
2022/02/09 06:56:58;;;;;;;;;;;2.00;99.90;;;0.87;93.90;96842.06;10556170;28;1855;-70
2022/02/09 07:02:05;;;;;;;;;;;1.90;99.90;;;1.05;93.26;96845.13;10549838;27;1918;-68
2022/02/09 07:07:08;;;;;;;;;;;2.00;99.90;;;1.04;92.77;96851.44;10558888;28;1950;-70
2022/02/09 07:12:11;;;;;;;;;;;2.10;99.90;;;1.17;92.88;96844.63;10560817;28;1699;-68
2022/02/09 07:17:14;;;;;;;;;;;2.20;99.90;;;1.28;91.81;96842.31;10558669;28;2072;-67
2022/02/09 07:22:25;;;;;;;;;;;2.30;99.90;;;1.46;90.73;96831.25;10566594;27;1873;-66
2022/02/09 07:27:39;;;;;;;;;;;2.40;99.90;;;1.57;90.47;96835.22;10543293;28;1864;-66
2022/02/09 07:32:44;;;;;;;;;;;2.50;99.90;;;1.67;89.57;96817.19;10565789;28;1786;-66
2022/02/09 07:37:48;;;;;;;;;;;2.70;99.90;;;1.74;89.44;96827.81;10537999;28;1918;-66
2022/02/09 07:42:54;;;;;;;;;;;2.80;99.90;;;1.88;88.39;96818.97;10575909;28;1787;-67
2022/02/09 07:48:13;;;;;;;;;;;2.80;99.90;;;2.09;87.32;96824.19;10600574;27;1810;-69
2022/02/09 07:53:24;;;;;;;;;;;3.00;99.90;;;2.43;86.01;96815.41;10572660;28;1867;-68
2022/02/09 07:58:27;;;;;;;;;;;3.20;99.90;;;2.88;83.70;96807.03;10552196;28;1914;-66
2022/02/09 08:03:31;;;;;;;;;;;3.50;99.90;;;3.38;81.40;96802.22;10545682;28;1842;-66
2022/02/09 08:08:35;;;;;;;;;;;3.90;99.90;;;3.63;79.79;96803.25;10555752;28;1854;-67
2022/02/09 08:30:01;;;;;;;;;;;4.80;99.90;;;4.33;75.16;96801.75;10492388;28;1815;-66
2022/02/09 08:35:04;;;;;;;;;;;5.10;99.90;;;4.67;73.79;96797.13;10537158;28;1878;-67
2022/02/09 08:40:10;;;;;;;;;;;5.30;99.90;;;5.02;73.12;96796.72;10531890;28;1981;-68
2022/02/09 08:45:14;;;;;;;;;;;5.60;99.90;;;5.29;71.76;96800.91;10561525;28;1932;-67
2022/02/09 08:50:26;;;;;;;;;;;5.80;99.90;;;5.62;70.71;96791.84;10548022;27;1929;-67
2022/02/09 08:55:30;;;;;;;;;;;6.20;99.90;;;5.76;70.05;96796.03;10548139;28;1890;-68
2022/02/09 09:00:36;;;;;;;;;;;6.40;99.90;;;5.65;71.09;96796.72;10548976;28;1983;-68
2022/02/09 09:05:46;;;;;;;;;;;6.40;99.90;;;5.54;71.99;96792.13;10529122;28;1784;-68
2022/02/09 09:11:09;;;;;;;;;;;6.50;99.90;;;5.39;73.41;96790.56;10537344;28;1803;-67
2022/02/09 10:04:58;;;;;;;;;;;7.00;99.90;;;6.37;66.22;96765.91;10538841;28;1974;-67
2022/02/09 10:36:58;;;;;;;;;;;7.70;99.90;;;6.96;58.87;96774.22;10549142;28;1850;-68
2022/02/09 10:42:09;;;;;;;;;;;7.90;99.90;;;7.10;58.42;96754.28;10531216;22;1992;-79
2022/02/09 10:47:12;;;;;;;;;;;8.00;99.90;;;7.19;57.07;96744.06;10528517;28;2002;-78
2022/02/09 10:52:17;;;;;;;;;;;7.80;99.90;;;7.34;54.08;96746.34;10526590;28;1784;-78
2022/02/09 10:57:20;;;;;;;;;;;8.20;99.90;;;7.41;53.26;96744.38;10516192;28;1883;-81
2022/02/09 11:02:27;;;;;;;;;;;8.30;99.90;;;7.58;50.89;96737.31;10521913;28;1918;-79
2022/02/09 11:07:31;;;;;;;;;;;;;;;7.77;48.79;96732.69;10531775;28;1899;-79
2022/02/09 11:12:36;;;;;;;;;;;8.30;99.90;;;7.87;48.86;96735.59;10517692;28;1586;-78
2022/02/09 11:17:39;;;;;;;;;;;8.80;99.90;;;7.88;49.24;96717.66;10533302;28;1821;-78
2022/02/09 11:22:43;;;;;;;;;;;8.70;99.90;;;7.97;48.69;96718.94;10534802;28;1949;-80
2022/02/09 11:27:52;;;;;;;;;;;8.80;99.90;;;8.20;48.25;96707.38;10524928;28;1792;-79
2022/02/09 11:32:56;;;;;;;;;;;8.90;99.90;;;8.24;48.30;96703.19;10513658;28;2080;-81
2022/02/09 11:38:13;;;;;;;;;;;9.00;99.90;;;8.33;49.13;96696.41;10513849;28;2114;-79
2022/02/09 11:43:16;;;;;;;;;;;9.00;99.90;;;8.33;50.24;96691.03;10502693;28;1809;-79
2022/02/09 11:48:39;;;;;;;;;;;;;;;8.45;49.84;96683.81;10510769;28;1744;-79
2022/02/09 11:59:34;;;;;;;;;;;9.40;99.90;;;8.41;50.77;96669.28;10528403;28;1909;-80
2022/02/09 12:09:53;;;;;;;;;;;9.30;99.90;;;8.53;51.68;96658.53;10508565;28;1908;-79
2022/02/09 12:15:02;;;;;;;;;;;9.40;99.90;;;8.69;51.98;96665.00;10525380;28;2300;-80
2022/02/09 12:20:09;;;;;;;;;;;9.50;99.90;;;8.69;51.95;96652.41;10506596;28;1902;-80
2022/02/09 12:25:12;;;;;;;;;;;9.50;99.90;;;8.69;52.21;96654.28;10517526;28;1762;-78
2022/02/09 12:30:16;;;;;;;;;;;9.60;99.90;;;8.81;52.60;96652.34;10509172;28;1952;-80
2022/02/09 12:35:18;;;;;;;;;;;9.60;99.90;;;8.79;53.50;96636.50;10536501;28;1788;-80
2022/02/09 12:40:21;;;;;;;;;;;9.80;99.90;;;9.04;52.69;96633.47;10527006;28;2004;-80
2022/02/09 12:45:24;;;;;;;;;;;9.90;99.90;;;9.03;52.91;96626.44;10532099;28;1803;-80
2022/02/09 12:50:30;;;;;;;;;;;9.90;99.90;;;9.02;52.02;96634.75;10511607;28;1852;-80
2022/02/09 12:55:33;;;;;;;;;;;9.90;99.90;;;9.10;52.63;96623.63;10525970;28;1766;-79
2022/02/09 13:00:38;;;;;;;;;;;10.00;99.90;;;9.17;51.87;96624.28;10542684;22;2004;-73
2022/02/09 13:05:41;;;;;;;;;;;10.00;99.90;;;9.13;53.08;96615.91;10535232;28;1826;-74
2022/02/09 13:10:44;;;;;;;;;;;10.10;99.90;;;9.20;53.78;96616.56;10542688;28;1898;-73
2022/02/09 13:15:52;;;;;;;;;;;10.20;99.90;;;9.36;53.03;96604.19;10555957;28;1995;-76
2022/02/09 13:21:46;;;;;;;;;;;10.30;99.90;;;9.30;53.27;96607.88;10541680;28;1910;-76
2022/02/09 13:51:46;;;;;;;;;;;10.20;99.90;;;9.24;54.35;96611.53;10558706;28;1940;-74
2022/02/09 14:15:07;;;;;;;;;;;10.40;99.90;;;9.46;56.26;96565.94;10527155;28;2213;-80
2022/02/09 14:47:35;;;;;;;;;;;10.60;99.90;;;9.32;58.03;96545.91;10542829;28;1775;-80
2022/02/09 14:52:55;;;;;;;;;;;10.40;99.90;;;9.26;58.02;96538.84;10533038;28;1790;-79
2022/02/09 14:58:07;;;;;;;;;;;10.30;99.90;;;9.39;58.31;96533.94;10522920;28;2161;-78
2022/02/09 15:03:24;;;;;;;;;;;10.40;99.90;;;9.14;59.62;96539.72;10535283;28;1886;-76
2022/02/09 15:08:34;;;;;;;;;;;10.30;99.90;;;9.05;59.31;96527.81;10514918;28;1880;-76
2022/02/09 15:13:45;;;;;;;;;;;10.20;99.90;;;9.04;60.10;96534.22;10531183;28;1954;-76
2022/02/09 15:19:08;;;;;;;;;;;10.20;99.90;;;8.91;61.15;96537.25;10516762;28;1844;-76
2022/02/09 15:24:14;;;;;;;;;;;10.10;99.90;;;8.98;60.25;96526.34;10526476;28;1835;-76
2022/02/09 15:29:17;;;;;;;;;;;10.00;99.90;;;8.84;60.51;96524.00;10509463;28;1929;-76
2022/02/09 15:34:26;;;;;;;;;;;10.00;99.90;;;8.86;60.59;96519.22;10505048;28;1815;-75
2022/02/09 15:39:34;;;;;;;;;;;10.00;99.90;;;8.64;61.06;96507.56;10512225;28;1909;-75
2022/02/09 16:06:15;;;;;;;;;;;9.40;99.90;;;8.06;64.35;96506.81;10509049;28;1864;-76
2022/02/09 16:11:36;;;;;;;;;;;9.30;99.90;;;7.95;64.30;96501.50;10509330;28;1852;-77
2022/02/09 16:17:05;;;;;;;;;;;9.20;99.90;;;7.97;64.69;96502.91;10524523;28;2270;-76
2022/02/09 16:22:12;;;;;;;;;;;9.10;99.90;;;7.81;65.52;96500.97;10521402;28;1906;-73
2022/02/09 16:38:23;;;;;;;;;;;8.90;99.90;;;7.52;66.93;96503.63;10529170;28;1813;-74
2022/02/09 16:48:57;;;;;;;;;;;8.70;99.90;;;7.20;68.57;96505.88;10505486;28;1840;-73
2022/02/09 17:20:47;;;;;;;;;;;8.00;99.90;;;6.57;73.28;96495.06;10493841;28;1906;-74
2022/02/09 17:25:50;;;;;;;;;;;7.90;99.90;;;6.43;74.15;96491.78;10527712;28;1819;-73
2022/02/09 17:36:18;;;;;;;;;;;7.70;99.90;;;6.30;75.49;96494.66;10541718;28;1838;-73
2022/02/09 17:57:30;;;;;;;;;;;7.40;99.90;;;5.86;79.19;96494.03;10522731;28;2041;-73
2022/02/09 18:02:34;;;;;;;;;;;7.20;99.90;;;5.65;80.43;96496.13;10526579;28;1922;-74
2022/02/09 18:07:39;;;;;;;;;;;7.00;99.90;;;5.52;81.89;96496.28;10531662;28;1906;-74
2022/02/09 18:12:59;;;;;;;;;;;6.90;99.90;;;5.42;83.04;96488.84;10512617;28;1789;-74
2022/02/09 18:29:15;;;;;;;;;;;6.60;99.90;;;5.14;88.53;96491.19;10525979;28;1898;-74
2022/02/09 18:34:45;;;;;;;;;;;6.50;99.90;;;5.04;88.98;96488.25;10515650;28;1765;-74
2022/02/09 18:45:17;;;;;;;;;;;6.20;99.90;;;4.81;91.69;96476.34;10490502;28;1860;-75
2022/02/09 19:06:27;;;;;;;;;;;5.80;99.90;;;4.39;91.31;96475.31;10514521;28;1865;-74
2022/02/09 19:16:58;;;;;;;;;;;5.70;99.90;;;4.16;94.67;96461.78;10500636;28;1837;-73
2022/02/09 19:48:43;;;;;;;;;;;5.10;99.90;;;3.66;95.14;96473.13;10525537;28;1841;-75
2022/02/09 19:54:05;;;;;;;;;;;5.00;99.90;;;3.56;95.48;96467.44;10507954;28;1817;-74
2022/02/09 19:59:15;;;;;;;;;;;4.90;99.90;;;3.41;95.96;96472.22;10506481;28;1829;-74
2022/02/09 20:04:19;;;;;;;;;;;4.80;99.90;;;3.33;97.74;96467.16;10524038;28;1988;-74
2022/02/09 20:09:24;;;;;;;;;;;4.70;99.90;;;3.25;98.39;96462.91;10522023;28;1799;-74
2022/02/09 20:14:29;;;;;;;;;;;4.60;99.90;;;3.17;98.16;96458.63;10524476;28;1866;-74
2022/02/09 20:19:32;;;;;;;;;;;4.50;99.90;;;3.04;98.41;96456.00;10525125;28;1893;-74
2022/02/09 20:24:36;;;;;;;;;;;4.40;99.90;;;3.03;98.99;96456.22;10523174;28;1984;-73
2022/02/09 20:29:40;;;;;;;;;;;4.40;99.90;;;2.94;98.54;96459.13;10505917;28;1826;-74
2022/02/09 20:34:50;;;;;;;;;;;4.60;99.90;;;2.85;98.64;96447.06;10524065;28;1775;-74
2022/02/09 20:40:03;;;;;;;;;;;4.30;99.90;;;2.83;98.62;96461.59;10525648;28;1833;-74
2022/02/09 20:45:13;;;;;;;;;;;3.90;99.90;;;2.79;97.75;96449.75;10522447;28;1971;-74
2022/02/09 20:50:16;;;;;;;;;;;4.00;99.90;;;2.75;97.26;96459.19;10522734;28;1866;-75
2022/02/09 20:55:21;;;;;;;;;;;4.00;99.90;;;2.74;95.89;96449.59;10524075;28;1824;-73
2022/02/09 21:00:33;;;;;;;;;;;3.90;99.90;;;2.74;95.50;96457.56;10523515;28;1925;-73
2022/02/09 21:05:45;;;;;;;;;;;3.90;99.90;;;2.95;94.41;96454.63;10523183;28;1906;-74
2022/02/09 21:10:56;;;;;;;;;;;4.00;99.90;;;2.84;92.35;96452.59;10523817;28;1807;-75
2022/02/09 21:16:14;;;;;;;;;;;4.00;99.90;;;2.97;91.07;96452.56;10531778;28;2069;-74
2022/02/09 21:21:47;;;;;;;;;;;4.10;99.90;;;2.82;91.20;96449.34;10497556;22;1919;-68
2022/02/09 21:59:16;;;;;;;;;;;3.70;99.90;;;2.34;91.91;96433.69;10538146;27;1878;-67
2022/02/09 22:21:16;;;;;;;;;;;3.40;99.90;;;1.96;91.35;96429.00;10501300;28;1803;-68
2022/02/09 22:31:51;;;;;;;;;;;3.40;99.90;;;1.94;90.96;96420.44;10470249;28;1855;-68
2022/02/09 22:58:19;;;;;;;;;;;3.10;99.90;;;1.67;93.45;96402.91;10473937;28;1945;-69
2022/02/09 23:03:27;;;;;;;;;;;3.00;99.90;;;1.61;93.15;96397.38;10474462;28;1810;-67
2022/02/09 23:13:54;;;;;;;;;;;2.90;99.90;;;1.65;93.34;96399.63;10445395;28;1946;-67
